sensor_id;sensor_type;location;lat;lon;timestamp;P1;durP1;ratioP1;P2;durP2;ratioP2
11342;SDS011;5726;42.160;24.746;2024-01-30T00:01:22;8.33;;;5.37;;
11342;SDS011;5726;42.160;24.746;2024-01-30T00:03:47;7.20;;;5.00;;
11342;SDS011;5726;42.160;24.746;2024-01-30T00:06:13;8.40;;;4.77;;
11342;SDS011;5726;42.160;24.746;2024-01-30T00:08:39;7.90;;;4.80;;
11342;SDS011;5726;42.160;24.746;2024-01-30T00:11:04;9.10;;;4.63;;
11342;SDS011;5726;42.160;24.746;2024-01-30T00:13:30;8.47;;;4.53;;
11342;SDS011;5726;42.160;24.746;2024-01-30T00:15:55;7.97;;;4.93;;
11342;SDS011;5726;42.160;24.746;2024-01-30T00:18:21;6.97;;;4.03;;
11342;SDS011;5726;42.160;24.746;2024-01-30T00:20:47;6.93;;;4.13;;
11342;SDS011;5726;42.160;24.746;2024-01-30T00:23:12;6.80;;;3.83;;
11342;SDS011;5726;42.160;24.746;2024-01-30T00:25:38;7.07;;;4.50;;
11342;SDS011;5726;42.160;24.746;2024-01-30T00:28:03;6.07;;;4.00;;
11342;SDS011;5726;42.160;24.746;2024-01-30T00:30:29;6.43;;;3.97;;
11342;SDS011;5726;42.160;24.746;2024-01-30T00:32:55;6.53;;;4.30;;
11342;SDS011;5726;42.160;24.746;2024-01-30T00:35:20;7.57;;;4.87;;
11342;SDS011;5726;42.160;24.746;2024-01-30T00:37:47;8.27;;;4.43;;
11342;SDS011;5726;42.160;24.746;2024-01-30T00:40:13;7.90;;;4.40;;
11342;SDS011;5726;42.160;24.746;2024-01-30T00:42:43;8.47;;;4.40;;
11342;SDS011;5726;42.160;24.746;2024-01-30T00:45:14;6.87;;;4.20;;
11342;SDS011;5726;42.160;24.746;2024-01-30T00:47:41;6.83;;;4.17;;
11342;SDS011;5726;42.160;24.746;2024-01-30T00:50:07;6.63;;;4.37;;
11342;SDS011;5726;42.160;24.746;2024-01-30T00:52:33;8.17;;;4.27;;
11342;SDS011;5726;42.160;24.746;2024-01-30T00:54:59;7.07;;;4.03;;
11342;SDS011;5726;42.160;24.746;2024-01-30T00:57:25;8.87;;;4.70;;
11342;SDS011;5726;42.160;24.746;2024-01-30T00:59:51;5.73;;;3.97;;
11342;SDS011;5726;42.160;24.746;2024-01-30T01:02:16;7.20;;;4.23;;
11342;SDS011;5726;42.160;24.746;2024-01-30T01:04:44;6.70;;;4.67;;
11342;SDS011;5726;42.160;24.746;2024-01-30T01:07:10;5.73;;;4.00;;
11342;SDS011;5726;42.160;24.746;2024-01-30T01:09:36;6.70;;;4.17;;
11342;SDS011;5726;42.160;24.746;2024-01-30T01:12:02;7.13;;;4.47;;
11342;SDS011;5726;42.160;24.746;2024-01-30T01:14:28;6.57;;;3.87;;
11342;SDS011;5726;42.160;24.746;2024-01-30T01:16:54;6.10;;;4.00;;
11342;SDS011;5726;42.160;24.746;2024-01-30T01:19:19;6.63;;;4.50;;
11342;SDS011;5726;42.160;24.746;2024-01-30T01:21:45;7.30;;;4.07;;
11342;SDS011;5726;42.160;24.746;2024-01-30T01:24:10;7.37;;;4.70;;
11342;SDS011;5726;42.160;24.746;2024-01-30T01:26:36;6.13;;;3.83;;
11342;SDS011;5726;42.160;24.746;2024-01-30T01:29:02;8.30;;;4.57;;
11342;SDS011;5726;42.160;24.746;2024-01-30T01:31:34;10.27;;;4.80;;
11342;SDS011;5726;42.160;24.746;2024-01-30T01:34:04;8.80;;;4.07;;
11342;SDS011;5726;42.160;24.746;2024-01-30T01:36:30;7.30;;;4.53;;
11342;SDS011;5726;42.160;24.746;2024-01-30T01:38:56;9.80;;;4.67;;
11342;SDS011;5726;42.160;24.746;2024-01-30T01:41:21;7.37;;;4.53;;
11342;SDS011;5726;42.160;24.746;2024-01-30T01:43:47;10.10;;;4.93;;
11342;SDS011;5726;42.160;24.746;2024-01-30T01:46:12;7.20;;;4.73;;
11342;SDS011;5726;42.160;24.746;2024-01-30T01:48:38;7.80;;;4.90;;
11342;SDS011;5726;42.160;24.746;2024-01-30T01:51:05;8.10;;;5.03;;
11342;SDS011;5726;42.160;24.746;2024-01-30T01:53:31;7.73;;;5.27;;
11342;SDS011;5726;42.160;24.746;2024-01-30T01:55:57;11.77;;;5.57;;
11342;SDS011;5726;42.160;24.746;2024-01-30T01:58:23;9.00;;;5.20;;
11342;SDS011;5726;42.160;24.746;2024-01-30T02:00:54;14.67;;;7.87;;
11342;SDS011;5726;42.160;24.746;2024-01-30T02:03:21;65.30;;;38.60;;
11342;SDS011;5726;42.160;24.746;2024-01-30T02:05:46;139.17;;;77.50;;
11342;SDS011;5726;42.160;24.746;2024-01-30T02:08:13;107.87;;;56.97;;
11342;SDS011;5726;42.160;24.746;2024-01-30T02:10:38;27.60;;;18.30;;
11342;SDS011;5726;42.160;24.746;2024-01-30T02:13:04;18.93;;;11.00;;
11342;SDS011;5726;42.160;24.746;2024-01-30T02:15:30;16.33;;;10.13;;
11342;SDS011;5726;42.160;24.746;2024-01-30T02:17:55;16.17;;;8.97;;
11342;SDS011;5726;42.160;24.746;2024-01-30T02:20:21;13.70;;;8.40;;
11342;SDS011;5726;42.160;24.746;2024-01-30T02:22:49;18.70;;;10.27;;
11342;SDS011;5726;42.160;24.746;2024-01-30T02:25:17;25.83;;;12.00;;
11342;SDS011;5726;42.160;24.746;2024-01-30T02:27:43;26.47;;;13.87;;
11342;SDS011;5726;42.160;24.746;2024-01-30T02:30:09;16.00;;;9.27;;
11342;SDS011;5726;42.160;24.746;2024-01-30T02:32:35;49.70;;;30.87;;
11342;SDS011;5726;42.160;24.746;2024-01-30T02:35:00;28.40;;;15.90;;
11342;SDS011;5726;42.160;24.746;2024-01-30T02:37:26;17.13;;;10.67;;
11342;SDS011;5726;42.160;24.746;2024-01-30T02:39:51;16.77;;;9.20;;
11342;SDS011;5726;42.160;24.746;2024-01-30T02:42:17;16.23;;;9.40;;
11342;SDS011;5726;42.160;24.746;2024-01-30T02:44:42;14.03;;;8.67;;
11342;SDS011;5726;42.160;24.746;2024-01-30T02:47:08;15.53;;;9.03;;
11342;SDS011;5726;42.160;24.746;2024-01-30T02:49:33;15.47;;;8.00;;
11342;SDS011;5726;42.160;24.746;2024-01-30T02:51:59;12.87;;;7.73;;
11342;SDS011;5726;42.160;24.746;2024-01-30T02:54:24;14.70;;;7.77;;
11342;SDS011;5726;42.160;24.746;2024-01-30T02:56:50;21.27;;;11.23;;
11342;SDS011;5726;42.160;24.746;2024-01-30T02:59:16;17.93;;;11.43;;
11342;SDS011;5726;42.160;24.746;2024-01-30T03:01:44;89.13;;;49.60;;
11342;SDS011;5726;42.160;24.746;2024-01-30T03:04:11;177.60;;;83.87;;
11342;SDS011;5726;42.160;24.746;2024-01-30T03:06:37;48.63;;;24.73;;
11342;SDS011;5726;42.160;24.746;2024-01-30T03:09:02;16.90;;;8.90;;
11342;SDS011;5726;42.160;24.746;2024-01-30T03:11:30;13.67;;;7.57;;
11342;SDS011;5726;42.160;24.746;2024-01-30T03:13:56;13.93;;;7.27;;
11342;SDS011;5726;42.160;24.746;2024-01-30T03:16:21;13.00;;;7.10;;
11342;SDS011;5726;42.160;24.746;2024-01-30T03:18:47;11.90;;;7.30;;
11342;SDS011;5726;42.160;24.746;2024-01-30T03:21:13;10.50;;;6.53;;
11342;SDS011;5726;42.160;24.746;2024-01-30T03:23:39;11.07;;;6.67;;
11342;SDS011;5726;42.160;24.746;2024-01-30T03:26:05;11.07;;;6.43;;
11342;SDS011;5726;42.160;24.746;2024-01-30T03:28:31;9.17;;;5.60;;
11342;SDS011;5726;42.160;24.746;2024-01-30T03:30:57;11.20;;;5.90;;
11342;SDS011;5726;42.160;24.746;2024-01-30T03:33:22;12.77;;;6.50;;
11342;SDS011;5726;42.160;24.746;2024-01-30T03:35:48;10.73;;;6.17;;
11342;SDS011;5726;42.160;24.746;2024-01-30T03:38:14;12.83;;;7.03;;
11342;SDS011;5726;42.160;24.746;2024-01-30T03:40:39;10.57;;;5.83;;
11342;SDS011;5726;42.160;24.746;2024-01-30T03:43:04;10.50;;;6.17;;
11342;SDS011;5726;42.160;24.746;2024-01-30T03:45:31;8.80;;;5.77;;
11342;SDS011;5726;42.160;24.746;2024-01-30T03:47:56;11.83;;;6.93;;
11342;SDS011;5726;42.160;24.746;2024-01-30T03:50:22;13.23;;;6.20;;
11342;SDS011;5726;42.160;24.746;2024-01-30T03:52:47;13.07;;;7.57;;
11342;SDS011;5726;42.160;24.746;2024-01-30T03:55:13;16.43;;;8.77;;
11342;SDS011;5726;42.160;24.746;2024-01-30T03:57:38;13.40;;;7.17;;
11342;SDS011;5726;42.160;24.746;2024-01-30T04:00:04;14.63;;;8.10;;
11342;SDS011;5726;42.160;24.746;2024-01-30T04:02:30;11.30;;;7.37;;
11342;SDS011;5726;42.160;24.746;2024-01-30T04:04:55;13.67;;;7.93;;
11342;SDS011;5726;42.160;24.746;2024-01-30T04:07:21;15.90;;;7.63;;
11342;SDS011;5726;42.160;24.746;2024-01-30T04:09:46;14.27;;;7.53;;
11342;SDS011;5726;42.160;24.746;2024-01-30T04:12:12;12.63;;;7.47;;
11342;SDS011;5726;42.160;24.746;2024-01-30T04:14:39;15.10;;;7.33;;
11342;SDS011;5726;42.160;24.746;2024-01-30T04:17:05;9.80;;;6.87;;
11342;SDS011;5726;42.160;24.746;2024-01-30T04:19:30;12.93;;;7.50;;
11342;SDS011;5726;42.160;24.746;2024-01-30T04:21:56;10.93;;;6.73;;
11342;SDS011;5726;42.160;24.746;2024-01-30T04:24:21;10.57;;;6.67;;
11342;SDS011;5726;42.160;24.746;2024-01-30T04:26:47;10.97;;;6.63;;
11342;SDS011;5726;42.160;24.746;2024-01-30T04:29:12;10.70;;;6.67;;
11342;SDS011;5726;42.160;24.746;2024-01-30T04:31:38;10.70;;;6.53;;
11342;SDS011;5726;42.160;24.746;2024-01-30T04:34:04;12.27;;;7.63;;
11342;SDS011;5726;42.160;24.746;2024-01-30T04:36:29;11.80;;;6.47;;
11342;SDS011;5726;42.160;24.746;2024-01-30T04:38:55;12.20;;;7.30;;
11342;SDS011;5726;42.160;24.746;2024-01-30T04:41:20;12.37;;;6.90;;
11342;SDS011;5726;42.160;24.746;2024-01-30T04:43:46;12.07;;;6.87;;
11342;SDS011;5726;42.160;24.746;2024-01-30T04:46:11;10.27;;;6.47;;
11342;SDS011;5726;42.160;24.746;2024-01-30T04:48:37;11.70;;;6.53;;
11342;SDS011;5726;42.160;24.746;2024-01-30T04:51:03;11.57;;;6.60;;
11342;SDS011;5726;42.160;24.746;2024-01-30T04:53:30;10.37;;;6.77;;
11342;SDS011;5726;42.160;24.746;2024-01-30T04:55:56;12.63;;;7.17;;
11342;SDS011;5726;42.160;24.746;2024-01-30T04:58:22;14.27;;;7.57;;
11342;SDS011;5726;42.160;24.746;2024-01-30T05:00:47;15.27;;;8.07;;
11342;SDS011;5726;42.160;24.746;2024-01-30T05:03:16;14.20;;;7.87;;
11342;SDS011;5726;42.160;24.746;2024-01-30T05:05:43;13.87;;;7.40;;
11342;SDS011;5726;42.160;24.746;2024-01-30T05:08:09;13.53;;;7.30;;
11342;SDS011;5726;42.160;24.746;2024-01-30T05:10:34;14.37;;;7.73;;
11342;SDS011;5726;42.160;24.746;2024-01-30T05:13:00;19.00;;;8.03;;
11342;SDS011;5726;42.160;24.746;2024-01-30T05:15:25;16.33;;;7.67;;
11342;SDS011;5726;42.160;24.746;2024-01-30T05:17:51;13.00;;;7.97;;
11342;SDS011;5726;42.160;24.746;2024-01-30T05:20:16;12.50;;;7.43;;
11342;SDS011;5726;42.160;24.746;2024-01-30T05:22:43;16.40;;;8.53;;
11342;SDS011;5726;42.160;24.746;2024-01-30T05:25:10;16.93;;;8.13;;
11342;SDS011;5726;42.160;24.746;2024-01-30T05:27:37;13.60;;;7.93;;
11342;SDS011;5726;42.160;24.746;2024-01-30T05:30:03;14.37;;;7.83;;
11342;SDS011;5726;42.160;24.746;2024-01-30T05:32:30;17.07;;;7.53;;
11342;SDS011;5726;42.160;24.746;2024-01-30T05:34:55;16.50;;;8.57;;
11342;SDS011;5726;42.160;24.746;2024-01-30T05:37:21;17.20;;;7.90;;
11342;SDS011;5726;42.160;24.746;2024-01-30T05:39:46;18.10;;;8.87;;
11342;SDS011;5726;42.160;24.746;2024-01-30T05:42:12;14.73;;;8.07;;
11342;SDS011;5726;42.160;24.746;2024-01-30T05:44:38;14.30;;;7.87;;
11342;SDS011;5726;42.160;24.746;2024-01-30T05:47:03;12.30;;;8.20;;
11342;SDS011;5726;42.160;24.746;2024-01-30T05:49:29;16.27;;;8.77;;
11342;SDS011;5726;42.160;24.746;2024-01-30T05:51:54;18.00;;;8.30;;
11342;SDS011;5726;42.160;24.746;2024-01-30T05:54:20;18.13;;;9.53;;
11342;SDS011;5726;42.160;24.746;2024-01-30T05:56:46;14.13;;;8.67;;
11342;SDS011;5726;42.160;24.746;2024-01-30T05:59:11;18.70;;;9.53;;
11342;SDS011;5726;42.160;24.746;2024-01-30T06:01:37;19.33;;;10.53;;
11342;SDS011;5726;42.160;24.746;2024-01-30T06:04:03;23.13;;;13.13;;
11342;SDS011;5726;42.160;24.746;2024-01-30T06:06:28;24.90;;;14.80;;
11342;SDS011;5726;42.160;24.746;2024-01-30T06:08:54;27.57;;;15.37;;
11342;SDS011;5726;42.160;24.746;2024-01-30T06:11:21;28.00;;;15.70;;
11342;SDS011;5726;42.160;24.746;2024-01-30T06:13:46;24.33;;;13.77;;
11342;SDS011;5726;42.160;24.746;2024-01-30T06:16:12;28.60;;;12.60;;
11342;SDS011;5726;42.160;24.746;2024-01-30T06:18:37;24.67;;;13.60;;
11342;SDS011;5726;42.160;24.746;2024-01-30T06:21:04;24.73;;;13.37;;
11342;SDS011;5726;42.160;24.746;2024-01-30T06:23:29;22.50;;;12.47;;
11342;SDS011;5726;42.160;24.746;2024-01-30T06:25:55;23.70;;;14.63;;
11342;SDS011;5726;42.160;24.746;2024-01-30T06:28:20;21.73;;;11.87;;
11342;SDS011;5726;42.160;24.746;2024-01-30T06:30:47;16.90;;;9.60;;
11342;SDS011;5726;42.160;24.746;2024-01-30T06:33:12;16.30;;;9.37;;
11342;SDS011;5726;42.160;24.746;2024-01-30T06:35:39;17.03;;;9.67;;
11342;SDS011;5726;42.160;24.746;2024-01-30T06:38:06;24.67;;;10.67;;
11342;SDS011;5726;42.160;24.746;2024-01-30T06:40:31;21.73;;;11.47;;
11342;SDS011;5726;42.160;24.746;2024-01-30T06:42:57;22.57;;;10.53;;
11342;SDS011;5726;42.160;24.746;2024-01-30T06:45:22;21.50;;;10.33;;
11342;SDS011;5726;42.160;24.746;2024-01-30T06:47:48;21.40;;;10.33;;
11342;SDS011;5726;42.160;24.746;2024-01-30T06:50:13;22.80;;;11.07;;
11342;SDS011;5726;42.160;24.746;2024-01-30T06:52:39;20.40;;;10.87;;
11342;SDS011;5726;42.160;24.746;2024-01-30T06:55:04;20.57;;;10.77;;
11342;SDS011;5726;42.160;24.746;2024-01-30T06:57:30;21.23;;;11.57;;
11342;SDS011;5726;42.160;24.746;2024-01-30T06:59:56;23.80;;;11.63;;
11342;SDS011;5726;42.160;24.746;2024-01-30T07:02:21;17.80;;;10.60;;
11342;SDS011;5726;42.160;24.746;2024-01-30T07:04:47;25.47;;;12.00;;
11342;SDS011;5726;42.160;24.746;2024-01-30T07:07:12;30.23;;;14.43;;
11342;SDS011;5726;42.160;24.746;2024-01-30T07:09:40;20.27;;;10.70;;
11342;SDS011;5726;42.160;24.746;2024-01-30T07:12:06;20.43;;;10.47;;
11342;SDS011;5726;42.160;24.746;2024-01-30T07:14:31;27.70;;;13.03;;
11342;SDS011;5726;42.160;24.746;2024-01-30T07:16:57;26.63;;;11.83;;
11342;SDS011;5726;42.160;24.746;2024-01-30T07:19:22;17.70;;;9.80;;
11342;SDS011;5726;42.160;24.746;2024-01-30T07:21:48;17.90;;;8.33;;
11342;SDS011;5726;42.160;24.746;2024-01-30T07:24:13;17.07;;;9.87;;
11342;SDS011;5726;42.160;24.746;2024-01-30T07:26:39;15.57;;;8.33;;
11342;SDS011;5726;42.160;24.746;2024-01-30T07:29:05;17.27;;;8.77;;
11342;SDS011;5726;42.160;24.746;2024-01-30T07:31:30;19.30;;;9.20;;
11342;SDS011;5726;42.160;24.746;2024-01-30T07:33:56;16.07;;;8.87;;
11342;SDS011;5726;42.160;24.746;2024-01-30T07:36:22;12.90;;;8.50;;
11342;SDS011;5726;42.160;24.746;2024-01-30T07:38:47;16.53;;;9.30;;
11342;SDS011;5726;42.160;24.746;2024-01-30T07:41:13;23.43;;;11.80;;
11342;SDS011;5726;42.160;24.746;2024-01-30T07:43:38;20.13;;;9.33;;
11342;SDS011;5726;42.160;24.746;2024-01-30T07:46:04;15.23;;;9.73;;
11342;SDS011;5726;42.160;24.746;2024-01-30T07:48:31;25.33;;;10.30;;
11342;SDS011;5726;42.160;24.746;2024-01-30T07:50:59;26.37;;;10.40;;
11342;SDS011;5726;42.160;24.746;2024-01-30T07:53:25;17.37;;;9.67;;
11342;SDS011;5726;42.160;24.746;2024-01-30T07:55:52;28.83;;;14.13;;
11342;SDS011;5726;42.160;24.746;2024-01-30T07:58:17;30.03;;;14.10;;
11342;SDS011;5726;42.160;24.746;2024-01-30T08:00:44;23.23;;;10.57;;
11342;SDS011;5726;42.160;24.746;2024-01-30T08:03:10;17.20;;;9.40;;
11342;SDS011;5726;42.160;24.746;2024-01-30T08:05:35;18.20;;;10.20;;
11342;SDS011;5726;42.160;24.746;2024-01-30T08:08:01;16.80;;;8.33;;
11342;SDS011;5726;42.160;24.746;2024-01-30T08:10:26;12.40;;;8.03;;
11342;SDS011;5726;42.160;24.746;2024-01-30T08:12:52;14.00;;;7.03;;
11342;SDS011;5726;42.160;24.746;2024-01-30T08:15:17;14.17;;;7.13;;
11342;SDS011;5726;42.160;24.746;2024-01-30T08:17:43;15.87;;;7.10;;
11342;SDS011;5726;42.160;24.746;2024-01-30T08:20:09;12.50;;;7.30;;
11342;SDS011;5726;42.160;24.746;2024-01-30T08:22:38;13.77;;;8.27;;
11342;SDS011;5726;42.160;24.746;2024-01-30T08:25:04;15.53;;;9.17;;
11342;SDS011;5726;42.160;24.746;2024-01-30T08:27:30;15.43;;;8.53;;
11342;SDS011;5726;42.160;24.746;2024-01-30T08:29:56;13.03;;;7.90;;
11342;SDS011;5726;42.160;24.746;2024-01-30T08:32:21;13.73;;;7.97;;
11342;SDS011;5726;42.160;24.746;2024-01-30T08:34:48;19.87;;;8.23;;
11342;SDS011;5726;42.160;24.746;2024-01-30T08:37:14;16.40;;;8.60;;
11342;SDS011;5726;42.160;24.746;2024-01-30T08:39:41;15.70;;;8.00;;
11342;SDS011;5726;42.160;24.746;2024-01-30T08:42:08;23.47;;;10.27;;
11342;SDS011;5726;42.160;24.746;2024-01-30T08:44:33;13.50;;;7.97;;
11342;SDS011;5726;42.160;24.746;2024-01-30T08:46:59;15.57;;;7.50;;
11342;SDS011;5726;42.160;24.746;2024-01-30T08:49:24;11.13;;;6.43;;
11342;SDS011;5726;42.160;24.746;2024-01-30T08:51:50;10.97;;;6.20;;
11342;SDS011;5726;42.160;24.746;2024-01-30T08:54:15;9.77;;;6.93;;
11342;SDS011;5726;42.160;24.746;2024-01-30T08:56:41;10.47;;;6.23;;
11342;SDS011;5726;42.160;24.746;2024-01-30T08:59:06;12.00;;;6.40;;
11342;SDS011;5726;42.160;24.746;2024-01-30T09:01:32;12.13;;;6.50;;
11342;SDS011;5726;42.160;24.746;2024-01-30T09:03:57;11.57;;;6.20;;
11342;SDS011;5726;42.160;24.746;2024-01-30T09:06:23;13.13;;;6.40;;
11342;SDS011;5726;42.160;24.746;2024-01-30T09:08:51;10.90;;;6.60;;
11342;SDS011;5726;42.160;24.746;2024-01-30T09:11:17;13.20;;;6.37;;
11342;SDS011;5726;42.160;24.746;2024-01-30T09:13:42;11.27;;;6.47;;
11342;SDS011;5726;42.160;24.746;2024-01-30T09:16:08;10.47;;;6.30;;
11342;SDS011;5726;42.160;24.746;2024-01-30T09:18:34;12.50;;;6.07;;
11342;SDS011;5726;42.160;24.746;2024-01-30T09:20:59;10.40;;;5.80;;
11342;SDS011;5726;42.160;24.746;2024-01-30T09:23:26;8.77;;;5.50;;
11342;SDS011;5726;42.160;24.746;2024-01-30T09:25:52;9.80;;;5.27;;
11342;SDS011;5726;42.160;24.746;2024-01-30T09:28:18;8.37;;;5.57;;
11342;SDS011;5726;42.160;24.746;2024-01-30T09:30:43;9.43;;;5.77;;
11342;SDS011;5726;42.160;24.746;2024-01-30T09:33:09;11.10;;;5.63;;
11342;SDS011;5726;42.160;24.746;2024-01-30T09:35:35;17.83;;;6.37;;
11342;SDS011;5726;42.160;24.746;2024-01-30T09:38:01;11.20;;;6.27;;
11342;SDS011;5726;42.160;24.746;2024-01-30T09:40:27;13.77;;;6.73;;
11342;SDS011;5726;42.160;24.746;2024-01-30T09:42:53;11.70;;;6.83;;
11342;SDS011;5726;42.160;24.746;2024-01-30T09:45:19;14.70;;;7.57;;
11342;SDS011;5726;42.160;24.746;2024-01-30T09:47:45;13.03;;;7.10;;
11342;SDS011;5726;42.160;24.746;2024-01-30T09:50:12;11.57;;;6.70;;
11342;SDS011;5726;42.160;24.746;2024-01-30T09:52:39;15.30;;;7.70;;
11342;SDS011;5726;42.160;24.746;2024-01-30T09:55:05;13.57;;;7.83;;
11342;SDS011;5726;42.160;24.746;2024-01-30T09:57:32;15.87;;;6.67;;
11342;SDS011;5726;42.160;24.746;2024-01-30T09:59:58;21.93;;;12.17;;
11342;SDS011;5726;42.160;24.746;2024-01-30T10:02:23;23.90;;;10.30;;
11342;SDS011;5726;42.160;24.746;2024-01-30T10:04:49;11.30;;;6.57;;
11342;SDS011;5726;42.160;24.746;2024-01-30T10:07:16;11.63;;;6.50;;
11342;SDS011;5726;42.160;24.746;2024-01-30T10:09:42;11.10;;;6.00;;
11342;SDS011;5726;42.160;24.746;2024-01-30T10:12:11;9.30;;;6.20;;
11342;SDS011;5726;42.160;24.746;2024-01-30T10:14:40;12.43;;;6.40;;
11342;SDS011;5726;42.160;24.746;2024-01-30T10:17:07;11.80;;;6.60;;
11342;SDS011;5726;42.160;24.746;2024-01-30T10:19:40;15.30;;;7.00;;
11342;SDS011;5726;42.160;24.746;2024-01-30T10:22:06;11.47;;;6.47;;
11342;SDS011;5726;42.160;24.746;2024-01-30T10:24:35;9.13;;;5.87;;
11342;SDS011;5726;42.160;24.746;2024-01-30T10:27:01;9.03;;;6.33;;
11342;SDS011;5726;42.160;24.746;2024-01-30T10:29:27;10.40;;;5.70;;
11342;SDS011;5726;42.160;24.746;2024-01-30T10:32:06;9.67;;;6.03;;
11342;SDS011;5726;42.160;24.746;2024-01-30T10:34:32;10.70;;;6.07;;
11342;SDS011;5726;42.160;24.746;2024-01-30T10:37:07;8.77;;;5.43;;
11342;SDS011;5726;42.160;24.746;2024-01-30T10:39:43;9.40;;;5.17;;
11342;SDS011;5726;42.160;24.746;2024-01-30T10:42:13;8.70;;;4.90;;
11342;SDS011;5726;42.160;24.746;2024-01-30T10:47:49;8.60;;;5.30;;
11342;SDS011;5726;42.160;24.746;2024-01-30T10:50:15;7.87;;;5.33;;
11342;SDS011;5726;42.160;24.746;2024-01-30T10:52:41;12.30;;;5.73;;
11342;SDS011;5726;42.160;24.746;2024-01-30T10:55:08;12.57;;;5.30;;
11342;SDS011;5726;42.160;24.746;2024-01-30T10:57:35;9.57;;;5.50;;
11342;SDS011;5726;42.160;24.746;2024-01-30T11:00:02;7.00;;;4.37;;
11342;SDS011;5726;42.160;24.746;2024-01-30T11:02:39;7.90;;;4.77;;
11342;SDS011;5726;42.160;24.746;2024-01-30T11:05:08;8.40;;;4.70;;
11342;SDS011;5726;42.160;24.746;2024-01-30T11:07:34;9.97;;;4.93;;
11342;SDS011;5726;42.160;24.746;2024-01-30T11:10:03;8.30;;;5.03;;
11342;SDS011;5726;42.160;24.746;2024-01-30T11:12:31;7.20;;;4.53;;
11342;SDS011;5726;42.160;24.746;2024-01-30T11:15:03;7.17;;;4.33;;
11342;SDS011;5726;42.160;24.746;2024-01-30T11:22:41;8.40;;;4.30;;
11342;SDS011;5726;42.160;24.746;2024-01-30T11:25:17;7.73;;;3.83;;
11342;SDS011;5726;42.160;24.746;2024-01-30T11:27:46;8.70;;;4.30;;
11342;SDS011;5726;42.160;24.746;2024-01-30T11:30:22;10.47;;;5.00;;
11342;SDS011;5726;42.160;24.746;2024-01-30T11:33:11;8.13;;;4.33;;
11342;SDS011;5726;42.160;24.746;2024-01-30T11:35:38;6.80;;;4.20;;
11342;SDS011;5726;42.160;24.746;2024-01-30T11:38:05;7.17;;;4.50;;
11342;SDS011;5726;42.160;24.746;2024-01-30T11:40:32;7.00;;;4.20;;
11342;SDS011;5726;42.160;24.746;2024-01-30T11:42:59;11.23;;;4.47;;
11342;SDS011;5726;42.160;24.746;2024-01-30T11:45:27;8.73;;;5.10;;
11342;SDS011;5726;42.160;24.746;2024-01-30T11:47:53;10.37;;;5.87;;
11342;SDS011;5726;42.160;24.746;2024-01-30T11:50:19;8.37;;;5.60;;
11342;SDS011;5726;42.160;24.746;2024-01-30T11:52:45;8.03;;;4.33;;
11342;SDS011;5726;42.160;24.746;2024-01-30T11:55:12;5.17;;;3.60;;
11342;SDS011;5726;42.160;24.746;2024-01-30T11:57:38;8.33;;;4.60;;
11342;SDS011;5726;42.160;24.746;2024-01-30T12:00:04;9.93;;;4.73;;
11342;SDS011;5726;42.160;24.746;2024-01-30T12:02:38;9.93;;;4.77;;
11342;SDS011;5726;42.160;24.746;2024-01-30T12:05:07;8.43;;;4.50;;
11342;SDS011;5726;42.160;24.746;2024-01-30T12:07:33;8.73;;;3.30;;
11342;SDS011;5726;42.160;24.746;2024-01-30T12:09:59;3.60;;;2.80;;
11342;SDS011;5726;42.160;24.746;2024-01-30T12:12:25;5.00;;;2.67;;
11342;SDS011;5726;42.160;24.746;2024-01-30T12:14:51;4.83;;;2.70;;
11342;SDS011;5726;42.160;24.746;2024-01-30T12:17:28;4.40;;;2.97;;
11342;SDS011;5726;42.160;24.746;2024-01-30T12:20:03;4.73;;;3.03;;
11342;SDS011;5726;42.160;24.746;2024-01-30T12:22:29;8.23;;;4.00;;
11342;SDS011;5726;42.160;24.746;2024-01-30T12:24:55;10.73;;;5.07;;
11342;SDS011;5726;42.160;24.746;2024-01-30T12:27:21;6.93;;;3.73;;
11342;SDS011;5726;42.160;24.746;2024-01-30T12:29:47;4.33;;;3.47;;
11342;SDS011;5726;42.160;24.746;2024-01-30T12:32:16;7.70;;;3.73;;
11342;SDS011;5726;42.160;24.746;2024-01-30T12:34:42;6.37;;;3.57;;
11342;SDS011;5726;42.160;24.746;2024-01-30T12:37:07;5.33;;;2.83;;
11342;SDS011;5726;42.160;24.746;2024-01-30T12:39:35;7.10;;;3.50;;
11342;SDS011;5726;42.160;24.746;2024-01-30T12:42:02;4.87;;;3.27;;
11342;SDS011;5726;42.160;24.746;2024-01-30T12:44:28;4.10;;;3.13;;
11342;SDS011;5726;42.160;24.746;2024-01-30T12:46:54;6.20;;;3.33;;
11342;SDS011;5726;42.160;24.746;2024-01-30T12:49:20;6.77;;;4.00;;
11342;SDS011;5726;42.160;24.746;2024-01-30T12:51:46;4.47;;;2.90;;
11342;SDS011;5726;42.160;24.746;2024-01-30T12:54:12;3.83;;;3.07;;
11342;SDS011;5726;42.160;24.746;2024-01-30T12:56:38;4.27;;;2.90;;
11342;SDS011;5726;42.160;24.746;2024-01-30T12:59:03;3.50;;;2.60;;
11342;SDS011;5726;42.160;24.746;2024-01-30T13:01:29;4.83;;;3.07;;
11342;SDS011;5726;42.160;24.746;2024-01-30T13:03:55;5.10;;;3.30;;
11342;SDS011;5726;42.160;24.746;2024-01-30T13:06:22;4.83;;;3.03;;
11342;SDS011;5726;42.160;24.746;2024-01-30T13:08:48;5.20;;;3.17;;
11342;SDS011;5726;42.160;24.746;2024-01-30T13:11:13;5.20;;;3.20;;
11342;SDS011;5726;42.160;24.746;2024-01-30T13:13:39;4.27;;;3.17;;
11342;SDS011;5726;42.160;24.746;2024-01-30T13:16:04;6.03;;;3.73;;
11342;SDS011;5726;42.160;24.746;2024-01-30T13:18:31;5.00;;;3.30;;
11342;SDS011;5726;42.160;24.746;2024-01-30T13:20:56;6.10;;;3.63;;
11342;SDS011;5726;42.160;24.746;2024-01-30T13:23:22;4.40;;;3.00;;
11342;SDS011;5726;42.160;24.746;2024-01-30T13:25:47;5.10;;;2.97;;
11342;SDS011;5726;42.160;24.746;2024-01-30T13:28:13;4.57;;;3.30;;
11342;SDS011;5726;42.160;24.746;2024-01-30T13:30:39;4.40;;;3.80;;
11342;SDS011;5726;42.160;24.746;2024-01-30T13:33:04;4.43;;;3.23;;
11342;SDS011;5726;42.160;24.746;2024-01-30T13:35:30;4.70;;;3.13;;
11342;SDS011;5726;42.160;24.746;2024-01-30T13:37:55;8.17;;;3.50;;
11342;SDS011;5726;42.160;24.746;2024-01-30T13:40:21;4.70;;;3.47;;
11342;SDS011;5726;42.160;24.746;2024-01-30T13:42:47;6.07;;;3.50;;
11342;SDS011;5726;42.160;24.746;2024-01-30T13:45:13;4.30;;;3.37;;
11342;SDS011;5726;42.160;24.746;2024-01-30T13:47:38;4.77;;;3.47;;
11342;SDS011;5726;42.160;24.746;2024-01-30T13:50:04;5.73;;;3.90;;
11342;SDS011;5726;42.160;24.746;2024-01-30T13:52:31;5.93;;;4.07;;
11342;SDS011;5726;42.160;24.746;2024-01-30T13:54:56;5.87;;;4.10;;
11342;SDS011;5726;42.160;24.746;2024-01-30T13:57:22;11.03;;;4.90;;
11342;SDS011;5726;42.160;24.746;2024-01-30T13:59:47;8.93;;;4.93;;
11342;SDS011;5726;42.160;24.746;2024-01-30T14:02:13;7.90;;;4.77;;
11342;SDS011;5726;42.160;24.746;2024-01-30T14:04:38;8.83;;;4.97;;
11342;SDS011;5726;42.160;24.746;2024-01-30T14:07:04;7.53;;;4.70;;
11342;SDS011;5726;42.160;24.746;2024-01-30T14:09:31;8.07;;;4.53;;
11342;SDS011;5726;42.160;24.746;2024-01-30T14:11:57;5.87;;;4.33;;
11342;SDS011;5726;42.160;24.746;2024-01-30T14:14:23;8.13;;;3.97;;
11342;SDS011;5726;42.160;24.746;2024-01-30T14:16:49;7.13;;;4.70;;
11342;SDS011;5726;42.160;24.746;2024-01-30T14:19:14;10.10;;;4.67;;
11342;SDS011;5726;42.160;24.746;2024-01-30T14:21:40;10.43;;;5.03;;
11342;SDS011;5726;42.160;24.746;2024-01-30T14:24:05;7.30;;;4.67;;
11342;SDS011;5726;42.160;24.746;2024-01-30T14:26:31;7.20;;;4.70;;
11342;SDS011;5726;42.160;24.746;2024-01-30T14:28:57;6.40;;;4.23;;
11342;SDS011;5726;42.160;24.746;2024-01-30T14:31:22;6.93;;;4.70;;
11342;SDS011;5726;42.160;24.746;2024-01-30T14:33:49;5.83;;;4.53;;
11342;SDS011;5726;42.160;24.746;2024-01-30T14:36:15;12.10;;;4.30;;
11342;SDS011;5726;42.160;24.746;2024-01-30T14:38:41;11.47;;;4.60;;
11342;SDS011;5726;42.160;24.746;2024-01-30T14:41:06;6.10;;;4.10;;